Time;durP1;ratioP1;P1;durP2;ratioP2;P2;SDS_P1;SDS_P2;PMS_P1;PMS_P2;Temp;Humidity;BMP_temperature;BMP_pressure;BME280_temperature;BME280_humidity;BME280_pressure;Samples;Min_cycle;Max_cycle;Signal;HPM_P1;HPM_P2
2022/07/23 00:02:08;;;;;;;14.20;11.60;;;;;;;18.20;66.27;99869.08;212963;1277;140227;-64
2022/07/23 00:07:11;;;;;;;11.50;10.20;;;;;;;18.15;66.60;99873.70;213809;1279;140316;-66
2022/07/23 00:12:16;;;;;;;11.70;10.60;;;;;;;18.19;66.91;99872.27;212802;1279;141191;-63
2022/07/23 00:17:18;;;;;;;12.80;11.10;;;;;;;18.17;67.07;99876.32;212892;1279;139417;-66
2022/07/23 00:22:21;;;;;;;14.00;11.00;;;;;;;18.16;67.02;99878.39;213168;1279;141940;-64
2022/07/23 00:27:23;;;;;;;16.60;11.90;;;;;;;18.04;66.93;99877.39;212802;1279;141004;-62
2022/07/23 00:32:26;;;;;;;37.50;12.80;;;;;;;17.81;67.00;99885.94;213027;1278;141994;-66
2022/07/23 00:37:50;;;;;;;13.90;12.50;;;;;;;17.70;67.45;99888.48;214096;1278;141253;-65
2022/07/23 00:42:52;;;;;;;12.00;10.90;;;;;;;17.52;67.75;99889.41;213129;1279;139536;-66
2022/07/23 00:47:55;;;;;;;14.60;11.80;;;;;;;17.36;68.27;99887.77;213681;1279;139937;-64
2022/07/23 00:53:00;;;;;;;14.20;12.50;;;;;;;17.33;68.41;99888.42;213238;1278;142479;-64
2022/07/23 00:58:07;;;;;;;16.60;12.50;;;;;;;17.25;68.68;99891.95;212904;1279;141492;-64
2022/07/23 01:03:11;;;;;;;14.40;11.70;;;;;;;17.30;68.97;99885.20;214160;1278;140686;-65
2022/07/23 01:08:14;;;;;;;16.20;11.30;;;;;;;17.38;68.86;99889.44;214386;1279;140850;-64
2022/07/23 01:13:18;;;;;;;16.10;12.60;;;;;;;17.30;68.65;99890.11;215454;1279;141200;-65
2022/07/23 01:18:22;;;;;;;16.60;12.00;;;;;;;17.29;68.93;99897.22;214867;1279;140117;-64
2022/07/23 01:23:25;;;;;;;11.40;10.30;;;;;;;17.32;68.95;99900.66;215245;1278;140354;-65
2022/07/23 01:28:30;;;;;;;13.70;11.70;;;;;;;17.28;68.71;99896.36;214090;1278;142307;-63
2022/07/23 01:33:32;;;;;;;11.20;10.10;;;;;;;17.23;68.76;99893.52;214497;1277;141601;-62
2022/07/23 01:38:34;;;;;;;14.30;12.70;;;;;;;16.97;68.56;99883.30;213400;1279;140369;-64
2022/07/23 01:43:36;;;;;;;16.50;13.50;;;;;;;16.85;69.24;99881.27;213528;1278;140659;-65
2022/07/23 01:48:41;;;;;;;13.70;12.00;;;;;;;16.85;69.24;99874.49;213237;1279;142121;-63
2022/07/23 01:53:45;;;;;;;14.50;13.00;;;;;;;16.75;69.50;99868.48;212654;1276;140812;-65
2022/07/23 01:58:49;;;;;;;16.20;12.60;;;;;;;16.80;69.87;99870.38;214361;1278;141717;-65
2022/07/23 02:03:52;;;;;;;12.60;11.30;;;;;;;16.82;69.68;99869.82;213128;1279;140922;-64
2022/07/23 02:08:56;;;;;;;15.00;11.00;;;;;;;16.67;69.52;99873.34;213798;1279;141847;-65
2022/07/23 02:13:59;;;;;;;15.00;12.50;;;;;;;16.47;69.78;99879.02;213347;1278;141607;-65
2022/07/23 02:19:04;;;;;;;12.90;10.90;;;;;;;16.42;70.09;99874.04;213897;1278;141996;-64
2022/07/23 02:24:07;;;;;;;13.80;11.00;;;;;;;16.31;70.24;99868.86;212855;1278;142426;-64
2022/07/23 02:29:10;;;;;;;15.40;13.60;;;;;;;16.26;70.32;99866.39;213815;1279;142125;-65
2022/07/23 02:34:13;;;;;;;16.20;12.90;;;;;;;16.11;70.67;99867.20;213118;1279;141084;-64
2022/07/23 02:39:15;;;;;;;14.40;12.10;;;;;;;16.06;70.97;99861.64;213381;1279;141266;-64
2022/07/23 02:44:19;;;;;;;16.90;13.40;;;;;;;16.13;71.35;99861.33;212795;1277;141906;-64
2022/07/23 02:49:27;;;;;;;14.20;12.80;;;;;;;16.23;71.07;99862.30;213833;1277;141453;-65
2022/07/23 02:54:33;;;;;;;14.40;13.00;;;;;;;16.12;70.90;99866.17;212836;1279;223697;-62
2022/07/23 02:59:38;;;;;;;15.20;13.50;;;;;;;16.08;71.10;99860.90;214646;1279;141091;-66
2022/07/23 03:04:43;;;;;;;18.20;15.60;;;;;;;16.11;71.25;99860.95;215413;1277;139827;-65
2022/07/23 03:09:45;;;;;;;14.40;12.90;;;;;;;16.12;71.04;99856.34;215246;1278;140508;-65
2022/07/23 03:14:48;;;;;;;14.50;12.80;;;;;;;16.01;71.17;99854.38;215599;1277;141459;-65
2022/07/23 03:19:51;;;;;;;20.40;13.30;;;;;;;16.02;71.13;99856.69;214485;1278;141125;-64
2022/07/23 03:24:54;;;;;;;14.50;12.60;;;;;;;15.98;71.31;99858.30;215436;1278;141157;-65
2022/07/23 03:29:59;;;;;;;18.50;13.20;;;;;;;16.00;71.64;99860.40;214958;1278;142225;-65
2022/07/23 03:35:04;;;;;;;17.90;14.80;;;;;;;16.03;71.63;99855.56;213762;1279;141354;-64
2022/07/23 03:40:09;;;;;;;14.60;13.20;;;;;;;16.14;72.00;99858.32;214108;1277;140957;-64
2022/07/23 03:45:13;;;;;;;19.00;13.10;;;;;;;16.28;71.85;99858.64;213478;1279;141078;-63
2022/07/23 03:50:18;;;;;;;16.50;15.00;;;;;;;16.37;71.91;99856.55;213450;1278;140267;-64
2022/07/23 03:55:21;;;;;;;16.80;14.40;;;;;;;16.53;72.30;99855.23;213612;1277;140670;-63
2022/07/23 04:00:24;;;;;;;21.90;14.90;;;;;;;16.71;72.20;99851.38;213645;1278;140363;-64
2022/07/23 04:05:27;;;;;;;16.30;14.60;;;;;;;16.95;72.21;99854.70;213157;1277;140734;-65
2022/07/23 04:10:29;;;;;;;20.70;15.60;;;;;;;17.14;72.49;99856.26;214021;1277;141148;-64
2022/07/23 04:15:32;;;;;;;17.30;15.50;;;;;;;17.39;72.61;99855.47;213728;1278;139953;-63
2022/07/23 04:20:36;;;;;;;20.70;15.50;;;;;;;17.89;72.04;99858.57;213181;1278;140470;-63
2022/07/23 04:25:43;;;;;;;15.50;13.80;;;;;;;18.30;71.97;99852.42;214031;1278;143169;-64
2022/07/23 04:30:46;;;;;;;17.80;15.90;;;;;;;18.62;71.40;99844.04;214270;1278;140360;-64
2022/07/23 04:35:50;;;;;;;17.00;15.30;;;;;;;19.11;71.14;99853.00;214444;1277;140967;-64
2022/07/23 04:40:53;;;;;;;20.70;15.80;;;;;;;19.54;70.40;99848.16;213967;1277;141040;-64
2022/07/23 04:45:55;;;;;;;19.10;16.40;;;;;;;20.37;69.87;99850.54;214475;1277;140133;-63
2022/07/23 04:50:59;;;;;;;18.00;16.10;;;;;;;20.85;69.42;99853.34;214109;1278;140603;-64
2022/07/23 04:56:03;;;;;;;18.40;16.60;;;;;;;21.51;68.88;99850.90;215640;1277;140055;-65
2022/07/23 05:01:05;;;;;;;17.20;15.50;;;;;;;21.90;68.43;99844.55;215514;1279;139899;-65
2022/07/23 05:06:08;;;;;;;17.00;15.30;;;;;;;22.57;67.43;99842.64;215730;1277;140583;-66
2022/07/23 05:11:15;;;;;;;18.90;16.60;;;;;;;24.10;65.49;99837.24;215192;1279;140691;-66
2022/07/23 05:16:19;;;;;;;18.10;16.00;;;;;;;24.16;64.90;99841.34;214887;1277;140079;-64
2022/07/23 05:21:21;;;;;;;17.50;15.80;;;;;;;24.60;64.01;99839.57;213870;1277;140722;-63
2022/07/23 05:26:25;;;;;;;16.10;14.60;;;;;;;26.35;61.64;99840.05;214234;1279;140100;-64
2022/07/23 05:31:28;;;;;;;15.40;13.90;;;;;;;29.19;58.55;99845.60;213521;1278;139997;-64
2022/07/23 05:36:32;;;;;;;17.70;12.60;;;;;;;32.13;54.77;99839.25;213894;1280;139611;-64
2022/07/23 05:41:34;;;;;;;9.60;8.90;;;;;;;34.76;50.14;99842.10;213014;1279;140404;-64
2022/07/23 05:46:38;;;;;;;9.00;8.00;;;;;;;36.93;46.33;99843.52;214309;1278;139310;-63
2022/07/23 05:51:40;;;;;;;7.60;6.70;;;;;;;38.57;42.37;99837.77;213294;1279;353426;-64
2022/07/23 05:56:43;;;;;;;6.60;6.10;;;;;;;40.05;39.74;99834.94;213248;1277;139358;-65
2022/07/23 06:01:47;;;;;;;8.20;7.10;;;;;;;41.60;36.60;99826.62;213464;1277;139040;-65
2022/07/23 06:06:50;;;;;;;6.20;5.70;;;;;;;42.61;34.06;99821.33;213906;1277;139869;-65
2022/07/23 06:11:53;;;;;;;6.10;5.70;;;;;;;43.24;32.34;99815.92;213711;1279;139462;-65
2022/07/23 06:16:59;;;;;;;8.20;4.60;;;;;;;43.77;30.69;99815.89;214061;1277;139431;-66
2022/07/23 06:22:03;;;;;;;5.70;4.20;;;;;;;44.29;29.45;99808.48;213846;1277;139907;-65
2022/07/23 06:27:08;;;;;;;5.70;4.70;;;;;;;44.71;28.40;99803.88;213177;1277;140755;-65
2022/07/23 06:32:12;;;;;;;4.80;4.50;;;;;;;45.25;27.12;99796.65;214247;1277;139450;-65
2022/07/23 06:37:16;;;;;;;5.40;5.10;;;;;;;45.26;26.54;99779.23;213481;1277;139881;-65
2022/07/23 06:42:20;;;;;;;4.50;4.10;;;;;;;44.03;26.47;99770.88;213891;1277;139351;-65
2022/07/23 06:47:24;;;;;;;4.20;3.80;;;;;;;42.88;26.44;99769.55;213997;1277;139762;-65
2022/07/23 06:52:28;;;;;;;4.90;4.50;;;;;;;40.87;26.71;99770.86;213662;1277;139470;-65
2022/07/23 06:57:31;;;;;;;5.20;4.80;;;;;;;39.36;27.97;99775.77;215247;1277;139337;-65
2022/07/23 07:02:37;;;;;;;4.80;4.40;;;;;;;38.29;29.09;99771.83;215913;1277;140332;-68
2022/07/23 07:07:40;;;;;;;5.00;4.70;;;;;;;38.05;29.64;99772.65;215457;1279;139399;-68
2022/07/23 07:12:44;;;;;;;4.90;4.60;;;;;;;38.71;29.06;99768.48;213984;1277;140478;-67
2022/07/23 07:17:50;;;;;;;5.30;4.10;;;;;;;39.28;29.42;99772.05;214598;1279;139722;-67
2022/07/23 07:22:53;;;;;;;6.80;4.50;;;;;;;40.17;28.94;99776.63;213560;1278;139312;-66
2022/07/23 07:27:55;;;;;;;4.30;4.00;;;;;;;40.18;28.54;99778.84;213159;1279;140536;-66
2022/07/23 07:32:59;;;;;;;4.80;4.40;;;;;;;40.30;28.61;99784.48;213056;1277;140869;-68
2022/07/23 07:38:02;;;;;;;5.10;4.70;;;;;;;40.21;28.49;99789.14;213457;1279;140783;-67
2022/07/23 07:43:06;;;;;;;4.90;3.80;;;;;;;39.94;28.51;99788.88;212838;1279;140093;-66
2022/07/23 07:48:09;;;;;;;5.90;5.40;;;;;;;38.84;28.53;99791.48;212743;1279;139690;-66
2022/07/23 07:53:13;;;;;;;6.20;5.60;;;;;;;38.45;29.08;99792.12;213588;1277;139617;-65
2022/07/23 07:58:18;;;;;;;4.90;4.50;;;;;;;38.04;28.96;99792.79;213365;1278;139402;-65
2022/07/23 08:03:21;;;;;;;5.80;5.30;;;;;;;37.48;29.78;99791.42;213833;1278;139041;-64
2022/07/23 08:08:24;;;;;;;9.50;5.30;;;;;;;37.24;30.67;99784.57;213859;1278;139448;-64
2022/07/23 08:13:27;;;;;;;8.60;6.50;;;;;;;37.27;31.10;99776.83;213440;1278;139974;-64
2022/07/23 08:18:31;;;;;;;5.90;5.40;;;;;;;37.23;30.58;99767.17;213108;1277;140763;-65
2022/07/23 08:23:37;;;;;;;5.80;5.30;;;;;;;37.19;30.81;99760.47;213240;1279;140994;-64
2022/07/23 08:28:40;;;;;;;5.90;4.70;;;;;;;37.14;30.66;99760.34;213526;1277;141905;-65
2022/07/23 08:33:43;;;;;;;7.80;6.60;;;;;;;36.97;30.84;99756.55;212960;1279;140164;-66
2022/07/23 08:38:46;;;;;;;7.50;6.90;;;;;;;36.87;31.16;99752.30;214929;1277;140677;-68
2022/07/23 08:43:49;;;;;;;7.10;6.60;;;;;;;36.95;31.38;99743.73;213383;1277;140478;-64
2022/07/23 08:48:54;;;;;;;10.60;5.90;;;;;;;37.05;31.71;99740.10;213391;1279;222051;-65
2022/07/23 08:53:59;;;;;;;12.40;7.10;;;;;;;37.10;31.04;99738.30;213630;1277;141503;-65
2022/07/23 08:59:06;;;;;;;12.40;6.80;;;;;;;36.75;30.91;99735.33;214455;1277;140697;-66
2022/07/23 09:04:11;;;;;;;7.80;6.50;;;;;;;36.41;31.33;99722.61;215187;1279;140553;-68
2022/07/23 09:09:20;;;;;;;7.40;6.90;;;;;;;36.06;31.38;99718.02;215630;1277;140470;-65
2022/07/23 09:14:43;;;;;;;8.00;5.80;;;;;;;36.02;32.09;99715.91;215004;1279;143571;-67
2022/07/23 09:19:46;;;;;;;6.90;6.30;;;;;;;35.84;32.20;99705.79;213766;1278;141899;-67
2022/07/23 09:25:07;;;;;;;6.50;5.90;;;;;;;35.59;32.09;99699.73;214876;1277;139839;-67
2022/07/23 09:30:10;;;;;;;6.50;5.90;;;;;;;35.81;32.28;99693.21;214119;1277;140848;-67
2022/07/23 09:35:13;;;;;;;9.20;7.00;;;;;;;36.10;31.88;99691.52;213585;1277;142712;-67
2022/07/23 09:40:17;;;;;;;7.70;6.90;;;;;;;36.15;32.04;99694.96;213811;1278;140572;-68
2022/07/23 09:45:22;;;;;;;9.60;6.00;;;;;;;36.02;32.04;99689.51;213529;1277;141080;-66
2022/07/23 09:50:26;;;;;;;21.50;6.70;;;;;;;35.84;31.68;99686.94;213874;1278;141077;-66
2022/07/23 09:55:38;;;;;;;7.40;6.80;;;;;;;35.78;31.68;99689.02;212959;1278;140256;-65
2022/07/23 10:00:44;;;;;;;6.70;6.00;;;;;;;35.67;31.77;99687.65;212903;1279;141227;-66
2022/07/23 10:05:49;;;;;;;6.70;6.10;;;;;;;35.57;31.71;99688.58;213326;1279;140733;-65
2022/07/23 10:10:54;;;;;;;16.90;6.40;;;;;;;35.63;31.74;99686.65;213117;1278;140456;-66
2022/07/23 10:15:58;;;;;;;6.70;6.10;;;;;;;35.50;31.74;99685.38;213622;1279;140836;-65
2022/07/23 10:21:06;;;;;;;6.80;6.20;;;;;;;35.42;31.86;99686.54;212873;1278;140917;-65
2022/07/23 10:26:20;;;;;;;7.40;6.90;;;;;;;35.53;32.00;99671.48;212958;1279;139840;-67
2022/07/23 10:32:07;;;;;;;7.90;6.90;;;;;;;35.55;31.80;99662.70;213533;1279;139541;-66
2022/07/23 10:37:20;;;;;;;7.10;6.50;;;;;;;35.65;31.51;99653.60;214314;1277;141111;-66
2022/07/23 10:42:35;;;;;;;6.50;5.90;;;;;;;35.93;31.25;99645.83;213840;1278;139143;-65
2022/07/23 10:47:40;;;;;;;9.70;6.40;;;;;;;36.16;31.23;99639.60;212673;1279;140143;-66
2022/07/23 10:53:08;;;;;;;6.70;6.10;;;;;;;36.20;30.80;99642.92;213825;1279;139672;-67
2022/07/23 10:58:18;;;;;;;9.00;6.90;;;;;;;35.98;30.79;99636.43;214224;1279;139312;-68
2022/07/23 11:03:33;;;;;;;7.50;6.60;;;;;;;36.12;31.01;99623.40;215056;1279;140504;-65
2022/07/23 11:08:36;;;;;;;7.40;6.40;;;;;;;36.34;30.48;99614.32;215305;1278;139503;-67
2022/07/23 11:13:42;;;;;;;8.10;7.40;;;;;;;36.14;29.75;99606.10;215368;1278;140281;-71
2022/07/23 11:18:48;;;;;;;7.40;6.10;;;;;;;35.89;29.94;99605.03;213896;1278;139696;-64
2022/07/23 11:24:03;;;;;;;8.70;6.40;;;;;;;35.87;30.39;99600.14;214495;1277;140623;-65
2022/07/23 11:29:45;;;;;;;7.00;6.30;;;;;;;35.33;30.35;99598.41;214412;1278;140853;-64
2022/07/23 11:34:52;;;;;;;7.20;6.50;;;;;;;34.67;30.57;99592.52;213204;1278;141266;-66
2022/07/23 11:39:58;;;;;;;21.50;8.00;;;;;;;34.37;30.99;99583.25;213013;1278;140424;-68
2022/07/23 11:45:01;;;;;;;6.70;6.10;;;;;;;34.37;31.59;99569.17;214115;1278;142277;-68
2022/07/23 11:50:06;;;;;;;7.70;7.00;;;;;;;34.15;31.40;99562.79;213253;1278;141506;-64
2022/07/23 11:55:11;;;;;;;9.10;6.60;;;;;;;33.67;31.60;99554.02;212639;1279;140743;-66
2022/07/23 12:00:17;;;;;;;10.20;7.70;;;;;;;33.27;32.04;99537.46;213413;1278;141644;-68
2022/07/23 12:05:23;;;;;;;12.60;6.00;;;;;;;33.22;31.98;99530.34;213014;1279;141196;-68
2022/07/23 12:10:41;;;;;;;7.60;6.60;;;;;;;33.31;32.26;99521.70;212777;1278;141700;-66
2022/07/23 12:15:53;;;;;;;7.70;6.90;;;;;;;33.12;31.89;99525.19;213269;1279;140984;-67
2022/07/23 12:21:02;;;;;;;8.90;8.00;;;;;;;32.77;32.13;99534.39;213236;1277;140139;-66
2022/07/23 12:26:06;;;;;;;8.10;7.40;;;;;;;32.50;32.03;99551.50;213887;1277;140289;-65
2022/07/23 12:31:09;;;;;;;17.90;7.00;;;;;;;32.18;32.67;99637.42;213247;1279;140806;-64
2022/07/23 12:36:14;;;;;;;6.40;5.10;;;;;;;31.07;34.15;99651.46;212683;1279;225719;-63
2022/07/23 12:41:16;;;;;;;6.40;5.90;;;;;;;29.56;36.22;99660.23;214035;1277;140626;-67
2022/07/23 12:46:20;;;;;;;7.10;4.80;;;;;;;28.21;38.74;99718.07;214576;1278;139311;-65
2022/07/23 12:51:31;;;;;;;16.90;6.80;;;;;;;27.18;41.23;99742.02;213751;1279;139933;-64
2022/07/23 12:56:40;;;;;;;8.70;6.50;;;;;;;26.21;43.45;99733.90;215391;1277;139940;-65
2022/07/23 13:01:48;;;;;;;10.30;6.00;;;;;;;25.43;45.76;99743.78;215530;1277;140166;-67
2022/07/23 13:07:03;;;;;;;8.50;6.20;;;;;;;24.82;48.25;99717.66;215232;1278;141291;-67
2022/07/23 13:12:08;;;;;;;6.10;5.70;;;;;;;24.30;50.22;99714.36;214755;1277;140811;-65
2022/07/23 13:17:12;;;;;;;8.40;7.60;;;;;;;24.03;51.92;99735.27;213984;1277;140374;-63
2022/07/23 13:22:15;;;;;;;9.60;6.40;;;;;;;23.89;53.30;99738.35;214755;1279;140500;-64
2022/07/23 13:27:24;;;;;;;8.20;7.40;;;;;;;23.75;54.17;99749.27;212603;1278;141169;-64
2022/07/23 13:32:28;;;;;;;7.00;6.40;;;;;;;23.61;55.20;99769.25;213724;1279;141494;-64
2022/07/23 13:37:32;;;;;;;11.80;6.80;;;;;;;23.47;55.98;99800.47;213605;1278;141040;-65
2022/07/23 13:42:42;;;;;;;7.80;6.80;;;;;;;23.31;56.60;99850.60;213128;1277;140923;-66
2022/07/23 13:47:47;;;;;;;8.30;7.50;;;;;;;22.91;57.88;99893.83;213001;1278;140761;-64
2022/07/23 13:52:51;;;;;;;9.30;7.50;;;;;;;22.58;58.81;99888.84;213405;1278;140716;-64
2022/07/23 13:57:55;;;;;;;11.30;6.40;;;;;;;22.53;59.57;99862.05;213389;1278;142136;-64
2022/07/23 14:02:59;;;;;;;19.80;7.20;;;;;;;22.49;59.98;99875.20;213837;1279;140662;-64
2022/07/23 14:08:03;;;;;;;7.80;7.10;;;;;;;22.44;60.63;99863.84;212906;1279;140049;-62
2022/07/23 14:13:06;;;;;;;7.80;7.00;;;;;;;22.48;61.00;99846.36;212724;1279;140520;-63
2022/07/23 14:18:10;;;;;;;11.70;8.10;;;;;;;22.47;61.37;99830.66;212651;1279;143339;-65
2022/07/23 14:23:13;;;;;;;8.20;7.40;;;;;;;22.44;61.70;99798.82;212944;1277;139794;-65
2022/07/23 14:28:16;;;;;;;8.10;7.30;;;;;;;22.48;62.16;99774.36;213315;1278;141136;-66
2022/07/23 14:33:22;;;;;;;8.70;7.80;;;;;;;22.58;62.57;99747.41;214065;1278;141175;-67
2022/07/23 14:38:30;;;;;;;9.00;8.10;;;;;;;22.69;62.70;99734.73;213429;1276;226069;-63
2022/07/23 14:43:33;;;;;;;8.40;7.80;;;;;;;22.71;62.99;99722.05;214484;1279;140567;-65
2022/07/23 14:48:37;;;;;;;10.30;7.00;;;;;;;22.69;63.22;99713.64;214224;1277;140143;-65
2022/07/23 14:53:40;;;;;;;8.10;7.30;;;;;;;22.66;63.66;99721.18;214794;1279;140873;-65
2022/07/23 14:58:43;;;;;;;8.80;8.00;;;;;;;22.75;63.69;99724.11;215345;1277;140163;-63
2022/07/23 15:03:51;;;;;;;8.30;7.60;;;;;;;22.88;64.07;99736.40;215495;1278;141250;-64
2022/07/23 15:09:35;;;;;;;;;;;;;;;23.41;63.93;99726.50;215525;1277;140330;-66
2022/07/23 15:14:39;;;;;;;8.90;8.00;;;;;;;23.89;63.80;99708.60;215429;1277;128704;-67
2022/07/23 15:19:43;;;;;;;8.70;7.80;;;;;;;24.24;63.04;99698.33;213410;1277;141280;-64
2022/07/23 15:24:47;;;;;;;15.00;9.40;;;;;;;24.45;62.75;99704.05;214188;1278;141090;-64
2022/07/23 15:29:53;;;;;;;10.90;8.20;;;;;;;24.58;62.54;99699.09;214450;1278;141265;-65
2022/07/23 15:34:57;;;;;;;8.10;7.40;;;;;;;24.59;62.35;99687.31;213888;1278;141724;-64
2022/07/23 15:39:59;;;;;;;14.30;8.30;;;;;;;24.47;62.06;99681.77;213275;1277;141003;-64
2022/07/23 15:45:03;;;;;;;9.50;8.70;;;;;;;24.36;62.37;99668.11;212793;1278;139979;-63
2022/07/23 15:50:09;;;;;;;10.40;8.00;;;;;;;24.35;62.63;99663.63;214221;1278;140256;-64
2022/07/23 15:55:13;;;;;;;9.80;7.90;;;;;;;24.40;62.69;99660.48;212598;1279;139446;-64
2022/07/23 16:00:20;;;;;;;7.50;6.80;;;;;;;24.48;62.68;99669.73;213259;1278;140186;-65
2022/07/23 16:05:33;;;;;;;9.00;7.40;;;;;;;24.51;62.75;99675.46;213312;1279;140831;-63
2022/07/23 16:10:36;;;;;;;10.20;7.70;;;;;;;24.54;63.03;99670.12;213369;1278;140641;-64
2022/07/23 16:15:40;;;;;;;12.00;8.50;;;;;;;24.48;62.77;99673.27;213583;1279;140104;-65
2022/07/23 16:20:43;;;;;;;8.80;8.00;;;;;;;24.50;62.88;99663.21;213061;1278;140070;-63
2022/07/23 16:25:48;;;;;;;8.90;8.10;;;;;;;24.52;63.06;99664.73;212942;1278;139841;-64
2022/07/23 16:30:50;;;;;;;9.00;7.20;;;;;;;24.41;62.87;99668.66;214417;1278;140652;-68
2022/07/23 16:35:56;;;;;;;8.90;7.80;;;;;;;24.27;63.43;99676.36;213180;1279;140095;-65
2022/07/23 16:41:00;;;;;;;8.70;7.90;;;;;;;24.19;63.57;99683.65;214154;1277;140322;-65
2022/07/23 16:46:03;;;;;;;9.30;7.90;;;;;;;24.09;63.65;99691.30;214199;1279;140068;-66
2022/07/23 16:51:06;;;;;;;8.20;7.60;;;;;;;24.03;64.17;99701.62;214981;1278;140566;-65
2022/07/23 16:56:10;;;;;;;8.70;7.10;;;;;;;24.05;64.47;99696.36;215063;1278;142344;-65
2022/07/23 17:01:14;;;;;;;8.50;7.70;;;;;;;24.07;64.66;99700.27;213524;1279;141452;-65
2022/07/23 17:06:17;;;;;;;10.50;7.10;;;;;;;24.05;64.89;99695.11;215368;1279;140024;-66
2022/07/23 17:11:19;;;;;;;10.10;9.10;;;;;;;24.01;65.06;99701.88;215193;1278;141693;-67
2022/07/23 17:16:22;;;;;;;8.30;7.50;;;;;;;23.95;65.25;99697.86;214290;1279;141358;-65
2022/07/23 17:21:24;;;;;;;11.00;9.70;;;;;;;23.76;65.37;99699.31;212948;1279;143593;-65
2022/07/23 17:26:32;;;;;;;9.30;8.50;;;;;;;23.82;65.92;99705.11;213778;1279;140295;-64
2022/07/23 17:31:37;;;;;;;10.00;8.30;;;;;;;23.83;66.11;99708.38;214243;1278;140452;-66
2022/07/23 17:36:43;;;;;;;9.40;8.60;;;;;;;23.91;66.17;99707.18;214194;1278;141546;-64
2022/07/23 17:41:47;;;;;;;8.80;8.00;;;;;;;23.93;66.00;99712.46;212686;1279;143892;-65
2022/07/23 17:46:51;;;;;;;8.80;8.00;;;;;;;23.68;66.35;99710.56;213694;1279;141936;-66
2022/07/23 17:51:55;;;;;;;8.70;7.90;;;;;;;23.38;66.93;99717.27;212737;1279;467083;-65
2022/07/23 17:56:58;;;;;;;9.70;8.90;;;;;;;23.33;67.48;99715.89;213015;1279;141673;-63
2022/07/23 18:02:09;;;;;;;12.20;10.30;;;;;;;23.27;68.05;99722.82;213000;1279;141421;-65
2022/07/23 18:07:12;;;;;;;12.60;9.00;;;;;;;23.20;68.19;99727.44;213787;1278;141163;-63
2022/07/23 18:12:17;;;;;;;11.20;10.10;;;;;;;22.96;68.37;99729.61;213010;1278;144150;-64
2022/07/23 18:17:21;;;;;;;10.10;9.30;;;;;;;22.84;68.95;99727.77;212932;1279;141177;-64
2022/07/23 18:22:25;;;;;;;9.60;8.60;;;;;;;22.83;69.18;99729.48;213887;1278;140861;-64
2022/07/23 18:27:30;;;;;;;10.70;9.70;;;;;;;22.76;69.68;99732.79;214202;1278;140590;-64
2022/07/23 18:32:35;;;;;;;11.00;10.00;;;;;;;22.78;69.87;99749.02;214506;1278;140443;-64
2022/07/23 18:37:45;;;;;;;10.20;9.00;;;;;;;22.75;70.23;99760.59;212852;1279;143157;-65
2022/07/23 18:42:48;;;;;;;12.70;10.60;;;;;;;22.56;70.20;99761.89;213969;1277;141694;-65
2022/07/23 18:47:53;;;;;;;14.30;10.60;;;;;;;22.47;70.79;99771.96;214963;1279;140596;-67
2022/07/23 18:52:57;;;;;;;11.40;10.50;;;;;;;22.49;71.07;99778.14;214464;1278;140441;-64
2022/07/23 18:58:04;;;;;;;11.20;10.20;;;;;;;22.42;71.03;99776.44;215299;1278;143396;-65
2022/07/23 19:03:09;;;;;;;11.30;10.20;;;;;;;22.47;71.30;99785.00;215402;1279;141738;-65
2022/07/23 19:08:13;;;;;;;10.90;10.00;;;;;;;22.53;71.34;99789.31;214335;1278;140684;-64
2022/07/23 19:13:17;;;;;;;11.30;10.30;;;;;;;22.57;71.38;99791.77;213930;1278;140615;-62
2022/07/23 19:18:26;;;;;;;10.60;9.60;;;;;;;22.59;71.39;99798.23;214693;1279;141406;-64
2022/07/23 19:23:35;;;;;;;12.70;10.30;;;;;;;22.54;71.33;99810.25;214542;1278;142198;-64
2022/07/23 19:28:46;;;;;;;10.70;9.80;;;;;;;22.53;71.52;99821.85;214690;1279;141781;-65
2022/07/23 19:33:50;;;;;;;13.90;12.10;;;;;;;22.48;71.54;99821.91;214245;1279;141517;-65
2022/07/23 19:38:56;;;;;;;12.60;11.30;;;;;;;22.45;71.59;99834.16;213617;1278;140542;-65
2022/07/23 19:44:01;;;;;;;14.30;12.10;;;;;;;22.37;71.73;99837.56;214449;1279;140253;-64
2022/07/23 19:49:11;;;;;;;13.70;12.10;;;;;;;22.39;72.12;99840.61;213739;1279;141170;-64
2022/07/23 19:54:26;;;;;;;13.10;11.90;;;;;;;22.29;72.15;99843.54;212796;1279;143981;-63
2022/07/23 19:59:33;;;;;;;13.20;11.80;;;;;;;22.16;72.21;99849.23;213214;1279;143474;-65
2022/07/23 20:04:36;;;;;;;14.40;12.00;;;;;;;21.98;72.54;99854.04;213595;1279;140933;-65
2022/07/23 20:09:40;;;;;;;14.50;13.20;;;;;;;21.89;73.09;99854.89;213530;1279;140645;-64
2022/07/23 20:14:48;;;;;;;11.10;10.20;;;;;;;21.96;73.26;99856.75;212885;1279;140966;-62
2022/07/23 20:19:53;;;;;;;16.20;10.90;;;;;;;21.99;73.44;99856.67;212675;1279;154487;-63
2022/07/23 20:24:57;;;;;;;14.80;11.90;;;;;;;22.04;73.61;99860.65;213633;1278;143848;-65
2022/07/23 20:30:05;;;;;;;14.70;10.80;;;;;;;22.02;73.63;99862.52;213704;1278;141313;-66
2022/07/23 20:35:10;;;;;;;16.00;12.30;;;;;;;21.97;73.58;99854.67;213870;1277;142212;-63
2022/07/23 20:40:14;;;;;;;13.70;12.40;;;;;;;21.99;73.85;99858.90;213778;1278;141284;-64
2022/07/23 20:45:20;;;;;;;12.50;11.20;;;;;;;22.04;73.97;99863.63;214046;1278;144048;-64
2022/07/23 20:50:25;;;;;;;14.00;11.60;;;;;;;22.10;73.99;99869.30;215297;1278;142730;-64
2022/07/23 20:55:29;;;;;;;13.10;11.90;;;;;;;22.13;73.88;99867.00;213473;1279;142279;-63
2022/07/23 21:00:35;;;;;;;12.90;11.80;;;;;;;22.04;73.60;99861.89;215168;1278;143199;-65
2022/07/23 21:05:38;;;;;;;18.20;12.00;;;;;;;21.87;73.84;99858.57;215404;1278;139971;-64
2022/07/23 21:10:42;;;;;;;12.90;11.50;;;;;;;21.83;73.91;99865.21;215165;1278;140951;-65
2022/07/23 21:15:46;;;;;;;13.80;11.50;;;;;;;21.91;74.18;99867.27;214499;1279;140891;-63
2022/07/23 21:21:09;;;;;;;12.70;11.50;;;;;;;21.98;74.23;99868.86;213430;1278;141459;-65
2022/07/23 21:26:12;;;;;;;13.30;11.80;;;;;;;22.02;74.24;99872.96;213624;1279;140497;-65
2022/07/23 21:31:35;;;;;;;15.90;12.70;;;;;;;22.06;74.23;99882.48;214188;1279;139951;-65
2022/07/23 21:36:39;;;;;;;14.70;12.60;;;;;;;22.05;74.21;99886.30;214078;1278;140246;-64
2022/07/23 21:41:47;;;;;;;16.80;13.50;;;;;;;22.02;74.21;99896.36;213966;1278;140408;-63
2022/07/23 21:47:14;;;;;;;14.50;13.00;;;;;;;21.96;74.21;99906.42;212996;1277;165341;-64
2022/07/23 21:52:35;;;;;;;14.20;12.90;;;;;;;21.91;74.45;99912.89;212575;1278;141428;-63
2022/07/23 21:57:44;;;;;;;24.70;14.80;;;;;;;21.85;74.50;99916.36;213064;1277;146080;-64
2022/07/23 22:02:56;;;;;;;15.30;13.70;;;;;;;21.85;74.63;99915.00;213231;1278;141998;-64
2022/07/23 22:08:28;;;;;;;23.40;17.30;;;;;;;21.83;74.83;99911.83;212855;1279;141691;-63
2022/07/23 22:13:32;;;;;;;20.10;16.90;;;;;;;21.78;74.83;99918.02;213758;1277;141784;-62
2022/07/23 22:18:36;;;;;;;19.90;16.20;;;;;;;21.76;75.03;99912.09;212898;1281;141619;-68
2022/07/23 22:23:39;;;;;;;17.20;15.20;;;;;;;21.72;74.94;99911.27;213090;1277;142608;-66
2022/07/23 22:28:41;;;;;;;19.60;15.60;;;;;;;21.69;75.07;99912.48;213880;1281;142482;-65
2022/07/23 22:33:44;;;;;;;18.90;15.80;;;;;;;21.66;75.07;99924.72;214268;1277;141639;-64
2022/07/23 22:38:46;;;;;;;19.80;17.50;;;;;;;21.64;75.11;99923.65;213914;1278;141334;-66
2022/07/23 22:43:49;;;;;;;19.60;16.00;;;;;;;21.63;74.93;99925.73;214860;1279;141667;-66
2022/07/23 22:48:53;;;;;;;18.70;16.60;;;;;;;21.53;74.88;99922.74;214712;1279;141197;-65
2022/07/23 22:53:56;;;;;;;21.00;17.20;;;;;;;21.44;74.79;99923.52;215317;1280;140977;-65
2022/07/23 22:59:00;;;;;;;17.80;15.90;;;;;;;21.39;74.74;99927.27;214475;1277;141537;-66
2022/07/23 23:04:27;;;;;;;27.10;17.10;;;;;;;21.38;74.93;99921.92;214888;1279;140962;-65
2022/07/23 23:09:30;;;;;;;16.50;15.10;;;;;;;21.32;74.75;99914.45;214423;1278;141638;-67